Time;durP1;ratioP1;P1;durP2;ratioP2;P2;SDS_P1;SDS_P2;PMS_P1;PMS_P2;Temp;Humidity;BMP_temperature;BMP_pressure;BME280_temperature;BME280_humidity;BME280_pressure;Samples;Min_cycle;Max_cycle;Signal;HPM_P1;HPM_P2
2023/08/13 00:01:12;;;;;;;2.75;0.88;;;17.20;99.90;;;;;;5094684;28;20087;-47
2023/08/13 00:03:38;;;;;;;3.03;0.70;;;17.20;99.90;;;;;;5095777;28;20097;-46
2023/08/13 00:06:03;;;;;;;4.43;1.33;;;17.20;99.90;;;;;;5095454;28;20048;-46
2023/08/13 00:08:29;;;;;;;6.68;2.35;;;17.20;99.90;;;;;;5094750;28;20449;-46
2023/08/13 00:10:55;;;;;;;5.15;0.90;;;17.20;99.90;;;;;;5094418;28;20083;-46
2023/08/13 00:13:20;;;;;;;3.40;0.93;;;17.20;99.90;;;;;;5095760;28;20067;-46
2023/08/13 00:15:46;;;;;;;3.72;0.90;;;17.10;99.90;;;;;;5095679;28;20101;-46
2023/08/13 00:18:12;;;;;;;4.00;1.02;;;17.20;99.90;;;;;;5095350;28;20118;-47
2023/08/13 00:20:37;;;;;;;3.63;0.93;;;17.10;99.90;;;;;;5094237;28;20040;-46
2023/08/13 00:23:03;;;;;;;6.18;1.20;;;17.10;99.90;;;;;;5095449;28;20185;-47
2023/08/13 00:25:29;;;;;;;5.85;1.00;;;17.10;99.90;;;;;;5095323;28;20527;-50
2023/08/13 00:27:54;;;;;;;4.35;1.20;;;17.10;99.90;;;;;;5095493;28;20482;-46
2023/08/13 00:30:20;;;;;;;4.50;1.05;;;17.10;99.90;;;;;;5093172;28;20055;-46
2023/08/13 00:32:46;;;;;;;3.63;0.98;;;17.10;99.90;;;;;;5095045;28;20048;-46
2023/08/13 00:35:12;;;;;;;3.30;1.10;;;17.10;99.90;;;;;;5094967;28;20123;-46
2023/08/13 00:37:37;;;;;;;2.35;0.75;;;17.10;99.90;;;;;;5095272;28;20071;-47
2023/08/13 00:40:06;;;;;;;7.13;0.98;;;17.00;99.90;;;;;;5095062;28;20048;-46
2023/08/13 00:42:33;;;;;;;2.72;0.90;;;17.10;99.90;;;;;;5095025;28;20474;-46
2023/08/13 00:44:59;;;;;;;5.88;1.15;;;17.00;99.90;;;;;;5095051;28;20044;-46
2023/08/13 00:47:25;;;;;;;2.63;1.08;;;17.00;99.90;;;;;;5094981;28;20507;-46
2023/08/13 00:49:52;;;;;;;2.45;0.82;;;17.10;99.90;;;;;;5094718;28;20050;-46
2023/08/13 00:52:18;;;;;;;3.17;1.25;;;17.10;99.90;;;;;;5094892;28;20063;-46
2023/08/13 00:54:43;;;;;;;;;;;17.00;99.90;;;;;;5095781;28;20044;-46
2023/08/13 00:57:10;;;;;;;5.40;1.33;;;17.00;99.90;;;;;;5094773;28;19920;-46
2023/08/13 00:59:36;;;;;;;5.40;1.10;;;17.00;99.90;;;;;;5094657;28;20044;-46
2023/08/13 01:02:02;;;;;;;5.82;1.15;;;17.00;99.90;;;;;;5094750;28;20040;-46
2023/08/13 01:04:28;;;;;;;5.25;1.00;;;17.00;99.90;;;;;;5094562;28;20067;-46
2023/08/13 01:07:21;;;;;;;2.92;1.10;;;17.00;99.90;;;;;;5094591;28;20040;-46
2023/08/13 01:10:30;;;;;;;4.68;0.98;;;17.00;99.90;;;;;;5093746;28;20062;-46
2023/08/13 01:13:22;;;;;;;6.57;1.33;;;16.90;99.90;;;;;;5093928;28;20052;-46
2023/08/13 01:15:48;;;;;;;4.28;0.98;;;16.90;99.90;;;;;;5094516;28;20044;-46
2023/08/13 01:18:16;;;;;;;;;;;16.90;99.90;;;;;;5094839;28;20130;-45
2023/08/13 01:20:42;;;;;;;;;;;16.90;99.90;;;;;;5094600;28;19920;-46
2023/08/13 01:23:07;;;;;;;4.28;1.10;;;16.90;99.90;;;;;;5093338;28;19919;-46
2023/08/13 01:25:34;;;;;;;3.75;0.90;;;16.90;99.90;;;;;;5094711;28;20479;-46
2023/08/13 01:28:32;;;;;;;3.28;0.80;;;16.90;99.90;;;;;;5094745;28;20036;-46
2023/08/13 01:31:04;;;;;;;7.15;1.30;;;16.90;99.90;;;;;;5094236;28;20083;-46
2023/08/13 01:33:33;;;;;;;3.42;1.00;;;16.90;99.90;;;;;;5094118;28;20040;-45
2023/08/13 01:36:01;;;;;;;4.25;0.90;;;16.90;99.90;;;;;;5093105;28;20483;-45
2023/08/13 01:38:28;;;;;;;5.30;1.10;;;16.90;99.90;;;;;;5093836;28;20060;-45
2023/08/13 01:40:56;;;;;;;6.78;1.15;;;16.90;99.90;;;;;;5093566;28;20054;-46
2023/08/13 01:43:22;;;;;;;6.50;1.13;;;16.90;99.90;;;;;;5093294;28;20044;-45
2023/08/13 01:45:48;;;;;;;6.38;1.30;;;16.90;99.90;;;;;;5093994;28;20066;-46
2023/08/13 01:48:13;;;;;;;3.92;1.10;;;16.90;99.90;;;;;;5093752;28;20036;-46
2023/08/13 01:50:40;;;;;;;3.60;1.13;;;16.90;99.90;;;;;;5094025;28;20475;-46
2023/08/13 01:53:06;;;;;;;6.32;1.20;;;16.90;99.90;;;;;;5093934;28;20040;-46
2023/08/13 01:55:31;;;;;;;7.18;1.60;;;17.00;99.90;;;;;;5092723;28;20043;-45
2023/08/13 01:57:57;;;;;;;3.65;1.10;;;17.00;99.90;;;;;;5093793;28;20047;-46
2023/08/13 02:00:23;;;;;;;4.90;1.20;;;17.00;99.90;;;;;;5093631;28;20510;-45
2023/08/13 02:02:48;;;;;;;3.72;0.90;;;16.90;99.90;;;;;;5093648;28;20388;-46
2023/08/13 02:05:14;;;;;;;2.75;0.95;;;17.00;99.90;;;;;;5093857;28;20075;-46
2023/08/13 02:07:40;;;;;;;4.25;1.23;;;17.00;99.90;;;;;;5092807;28;20044;-46
2023/08/13 02:10:05;;;;;;;3.35;0.80;;;16.90;99.90;;;;;;5092750;28;20476;-46
2023/08/13 02:12:31;;;;;;;4.25;0.95;;;16.90;99.90;;;;;;5093543;28;20044;-46
2023/08/13 02:14:57;;;;;;;3.38;0.90;;;16.90;99.90;;;;;;5093675;28;20043;-46
2023/08/13 02:17:23;;;;;;;6.55;1.10;;;16.90;99.90;;;;;;5093704;28;20048;-46
2023/08/13 02:19:48;;;;;;;3.22;0.80;;;16.90;99.90;;;;;;5092759;28;20056;-46
2023/08/13 02:22:14;;;;;;;3.70;0.90;;;17.00;99.90;;;;;;5093569;28;20044;-46
2023/08/13 02:24:40;;;;;;;6.50;0.80;;;16.90;99.90;;;;;;5093811;28;20198;-45
2023/08/13 02:27:05;;;;;;;4.60;1.08;;;16.90;99.90;;;;;;5093579;28;20487;-46
2023/08/13 02:29:31;;;;;;;5.22;0.98;;;16.90;99.90;;;;;;5092326;28;20040;-46
2023/08/13 02:31:57;;;;;;;6.03;0.82;;;16.90;99.90;;;;;;5093231;28;20048;-46
2023/08/13 02:34:23;;;;;;;6.13;1.05;;;16.90;99.90;;;;;;5093750;28;20044;-46
2023/08/13 02:36:50;;;;;;;3.42;0.88;;;16.90;99.90;;;;;;5093006;28;20056;-46
2023/08/13 02:39:16;;;;;;;8.15;1.20;;;16.80;99.90;;;;;;5093983;28;20462;-46
2023/08/13 02:41:42;;;;;;;3.95;1.35;;;16.80;99.90;;;;;;5093644;28;20040;-45
2023/08/13 02:44:08;;;;;;;3.17;0.82;;;16.80;99.90;;;;;;5093200;28;20063;-46
2023/08/13 02:46:34;;;;;;;2.97;0.90;;;16.80;99.90;;;;;;5093263;28;20101;-46
2023/08/13 02:48:59;;;;;;;5.60;1.02;;;16.80;99.90;;;;;;5092482;28;20479;-45
2023/08/13 02:51:26;;;;;;;10.10;1.10;;;16.80;99.90;;;;;;5093665;28;20040;-46
2023/08/13 02:53:52;;;;;;;6.43;1.00;;;16.80;99.90;;;;;;5096206;28;20043;-46
2023/08/13 02:56:19;;;;;;;6.97;1.08;;;16.80;99.90;;;;;;5097194;28;20051;-47
2023/08/13 02:58:45;;;;;;;5.20;0.98;;;16.80;99.90;;;;;;5097026;28;20048;-46
2023/08/13 03:01:11;;;;;;;4.82;1.05;;;16.70;99.90;;;;;;5096668;28;20502;-46
2023/08/13 03:03:37;;;;;;;4.28;1.30;;;16.80;99.90;;;;;;5097305;28;20044;-46
2023/08/13 03:06:03;;;;;;;6.00;1.08;;;16.70;99.90;;;;;;5096893;28;20044;-46
2023/08/13 03:08:28;;;;;;;2.40;0.75;;;16.70;99.90;;;;;;5096911;28;20051;-47
2023/08/13 03:10:54;;;;;;;7.13;1.20;;;16.70;99.90;;;;;;5095716;28;20394;-46
2023/08/13 03:13:20;;;;;;;5.07;0.93;;;16.70;99.90;;;;;;5096781;28;20583;-46
2023/08/13 03:15:46;;;;;;;5.22;1.08;;;16.70;99.90;;;;;;5096680;28;20075;-45
2023/08/13 03:18:13;;;;;;;4.80;1.05;;;16.70;99.90;;;;;;5096487;28;20483;-46
2023/08/13 03:20:38;;;;;;;7.57;1.73;;;16.70;99.90;;;;;;5096533;28;20040;-46
2023/08/13 03:23:04;;;;;;;5.15;1.38;;;16.70;99.90;;;;;;5096546;28;20445;-46
2023/08/13 03:25:30;;;;;;;5.35;1.13;;;16.70;99.90;;;;;;5096583;28;20048;-46
2023/08/13 03:27:56;;;;;;;5.18;1.35;;;16.70;99.90;;;;;;5095409;28;20489;-46
2023/08/13 03:30:22;;;;;;;7.20;1.30;;;16.60;99.90;;;;;;5096207;28;20048;-46
2023/08/13 03:32:47;;;;;;;3.60;1.10;;;16.60;99.90;;;;;;5096538;28;20047;-46
2023/08/13 03:35:13;;;;;;;4.78;1.10;;;16.60;99.90;;;;;;5096375;28;20131;-46
2023/08/13 03:37:39;;;;;;;5.57;1.30;;;16.60;99.90;;;;;;5096193;28;20063;-46
2023/08/13 03:40:05;;;;;;;5.30;1.10;;;16.60;99.90;;;;;;5096288;28;20463;-46
2023/08/13 03:42:31;;;;;;;5.55;1.38;;;16.60;99.90;;;;;;5096059;28;20402;-46
2023/08/13 03:44:58;;;;;;;5.78;1.15;;;16.60;99.90;;;;;;5095979;28;20048;-46
2023/08/13 03:47:24;;;;;;;4.57;1.10;;;16.60;99.90;;;;;;5096135;28;20044;-46
2023/08/13 03:49:49;;;;;;;6.07;1.25;;;16.50;99.90;;;;;;5096030;28;20048;-46
2023/08/13 03:52:15;;;;;;;7.18;1.60;;;16.60;99.90;;;;;;5096101;28;20384;-46
2023/08/13 03:54:41;;;;;;;3.88;0.85;;;16.60;99.90;;;;;;5094632;28;20044;-46
2023/08/13 03:57:07;;;;;;;7.68;1.40;;;16.50;99.90;;;;;;5095924;28;20046;-46
2023/08/13 03:59:32;;;;;;;3.00;1.00;;;16.60;99.90;;;;;;5095680;28;20095;-46
2023/08/13 04:01:58;;;;;;;5.90;1.50;;;16.50;99.90;;;;;;5095818;28;20487;-46
2023/08/13 04:04:25;;;;;;;4.35;0.90;;;16.50;99.90;;;;;;5095702;28;20127;-46
2023/08/13 04:06:50;;;;;;;;;;;16.50;99.90;;;;;;5096339;28;20050;-46
2023/08/13 04:09:16;;;;;;;4.10;1.20;;;16.50;99.90;;;;;;5095662;28;19920;-46
2023/08/13 04:11:42;;;;;;;4.47;1.13;;;16.50;99.90;;;;;;5095690;28;20062;-45
2023/08/13 04:14:07;;;;;;;6.32;1.73;;;16.50;99.90;;;;;;5095628;28;20483;-46
2023/08/13 04:16:33;;;;;;;4.28;1.00;;;16.60;99.90;;;;;;5095354;28;20399;-46
2023/08/13 04:18:59;;;;;;;3.08;1.05;;;16.50;99.90;;;;;;5095530;28;20105;-46
2023/08/13 04:21:27;;;;;;;6.72;1.75;;;16.50;99.90;;;;;;5094333;28;20094;-46
2023/08/13 04:23:56;;;;;;;6.43;1.20;;;16.50;99.90;;;;;;5095373;28;20407;-46
2023/08/13 04:26:22;;;;;;;6.35;1.30;;;16.50;99.90;;;;;;5095401;28;20123;-47
2023/08/13 04:28:48;;;;;;;5.13;1.38;;;16.50;99.90;;;;;;5095159;28;20403;-46
2023/08/13 04:31:15;;;;;;;4.40;1.20;;;16.50;99.90;;;;;;5095056;28;20044;-47
2023/08/13 04:33:41;;;;;;;4.38;1.00;;;16.50;99.90;;;;;;5095556;28;20044;-46
2023/08/13 04:36:07;;;;;;;3.78;1.20;;;16.50;99.90;;;;;;5095140;28;20394;-45
2023/08/13 04:38:33;;;;;;;3.53;1.80;;;16.50;99.90;;;;;;5095129;28;20060;-46
2023/08/13 04:41:00;;;;;;;4.72;1.45;;;16.50;99.90;;;;;;5094940;28;20051;-46
2023/08/13 04:43:26;;;;;;;5.22;1.17;;;16.50;99.90;;;;;;5094023;28;20048;-46
2023/08/13 04:45:51;;;;;;;4.53;1.10;;;16.60;99.90;;;;;;5095038;28;20048;-47
2023/08/13 04:48:38;;;;;;;5.23;1.40;;;16.60;99.90;;;;;;5095033;28;20043;-46
2023/08/13 04:51:04;;;;;;;3.95;1.23;;;16.60;99.90;;;;;;5093416;28;20297;-47
2023/08/13 04:53:29;;;;;;;4.50;1.15;;;16.60;99.90;;;;;;5094706;28;20048;-46
2023/08/13 04:55:55;;;;;;;6.13;1.23;;;16.60;99.90;;;;;;5094747;28;20050;-46
2023/08/13 04:58:21;;;;;;;4.22;1.40;;;16.60;99.90;;;;;;5094795;28;20100;-47
2023/08/13 05:00:46;;;;;;;5.75;1.85;;;16.60;99.90;;;;;;5094750;28;20044;-46
2023/08/13 05:03:12;;;;;;;2.75;0.88;;;16.70;99.90;;;;;;5094722;28;20044;-46
2023/08/13 05:05:37;;;;;;;3.58;1.30;;;16.70;99.90;;;;;;5094655;28;20044;-46
2023/08/13 05:08:03;;;;;;;6.32;1.20;;;16.70;99.90;;;;;;5094627;28;20039;-46
2023/08/13 05:10:29;;;;;;;11.90;1.98;;;16.70;99.90;;;;;;5094362;28;20479;-47
2023/08/13 05:12:55;;;;;;;4.18;1.25;;;16.70;99.90;;;;;;5094588;28;20126;-46
2023/08/13 05:15:20;;;;;;;6.75;1.27;;;16.80;99.90;;;;;;5094245;28;20502;-46
2023/08/13 05:17:46;;;;;;;7.65;1.60;;;16.80;99.90;;;;;;5094702;28;20505;-46
2023/08/13 05:20:12;;;;;;;3.00;1.05;;;16.80;99.90;;;;;;5094324;28;20044;-46
2023/08/13 05:22:37;;;;;;;6.60;1.67;;;16.80;99.90;;;;;;5094262;28;20036;-46
2023/08/13 05:25:03;;;;;;;6.30;1.27;;;16.80;99.90;;;;;;5094122;28;20080;-47
2023/08/13 05:27:29;;;;;;;10.13;1.48;;;16.80;99.90;;;;;;5093931;28;20047;-46
2023/08/13 05:29:55;;;;;;;4.35;0.90;;;16.80;99.90;;;;;;5094361;28;20125;-46
2023/08/13 05:32:22;;;;;;;5.88;1.42;;;16.80;99.90;;;;;;5094200;28;20084;-46
2023/08/13 05:34:48;;;;;;;9.02;1.58;;;16.90;99.90;;;;;;5094009;28;20491;-47
2023/08/13 05:37:13;;;;;;;4.30;1.20;;;16.90;99.90;;;;;;5093672;28;20056;-46
2023/08/13 05:39:39;;;;;;;6.50;1.42;;;16.90;99.90;;;;;;5094003;28;20090;-46
2023/08/13 05:42:05;;;;;;;4.57;1.27;;;16.90;99.90;;;;;;5092754;28;20084;-47
2023/08/13 05:44:31;;;;;;;6.53;1.80;;;16.90;99.90;;;;;;5094172;28;20062;-45
2023/08/13 05:46:57;;;;;;;6.20;1.40;;;16.90;99.90;;;;;;5094344;28;20126;-46
2023/08/13 05:49:22;;;;;;;7.15;1.40;;;17.00;99.90;;;;;;5093959;28;20044;-46
2023/08/13 05:51:48;;;;;;;4.88;1.38;;;17.00;99.90;;;;;;5093886;28;20039;-46
2023/08/13 05:54:15;;;;;;;3.78;1.05;;;17.00;99.90;;;;;;5093849;28;20054;-46
2023/08/13 05:56:40;;;;;;;;;;;17.00;99.90;;;;;;5092854;28;20572;-46
2023/08/13 05:59:06;;;;;;;5.22;1.10;;;17.00;99.90;;;;;;5094075;28;19984;-46
2023/08/13 06:01:33;;;;;;;4.97;1.50;;;17.00;99.90;;;;;;5093731;28;20089;-47
2023/08/13 06:03:59;;;;;;;8.65;1.60;;;17.00;99.90;;;;;;5093803;28;20517;-46
2023/08/13 06:06:25;;;;;;;;;;;17.00;99.90;;;;;;5094086;28;20043;-46
2023/08/13 06:08:50;;;;;;;7.13;1.50;;;17.00;99.90;;;;;;5093614;28;19967;-47
2023/08/13 06:11:16;;;;;;;4.20;1.30;;;17.10;99.90;;;;;;5093477;28;20113;-46
2023/08/13 06:13:42;;;;;;;4.05;1.38;;;17.00;99.90;;;;;;5093859;28;20518;-46
2023/08/13 06:16:08;;;;;;;6.38;1.85;;;17.00;99.90;;;;;;5093692;28;20540;-46
2023/08/13 06:18:36;;;;;;;5.47;1.48;;;17.00;99.90;;;;;;5093512;28;20379;-47
2023/08/13 06:21:05;;;;;;;4.80;1.50;;;17.00;99.90;;;;;;5093572;28;20040;-46
2023/08/13 06:23:31;;;;;;;4.72;1.20;;;17.00;99.90;;;;;;5093433;28;20161;-46
2023/08/13 06:25:56;;;;;;;3.83;1.20;;;17.00;99.90;;;;;;5093383;28;20080;-45
2023/08/13 06:28:22;;;;;;;6.20;1.20;;;17.00;99.90;;;;;;5095773;28;20048;-46
2023/08/13 06:30:48;;;;;;;6.47;1.52;;;17.00;99.90;;;;;;5097642;28;20051;-46
2023/08/13 06:33:14;;;;;;;8.55;2.38;;;17.00;99.90;;;;;;5097576;28;20052;-46
2023/08/13 06:35:47;;;;;;;4.60;1.38;;;17.10;99.90;;;;;;5096594;28;20096;-47
2023/08/13 06:38:13;;;;;;;4.65;1.48;;;17.30;99.90;;;;;;5079152;28;20056;-46
2023/08/13 06:40:39;;;;;;;4.32;1.60;;;17.50;99.90;;;;;;5097334;28;20475;-46
2023/08/13 06:43:05;;;;;;;6.32;1.88;;;17.70;99.90;;;;;;5097348;28;20105;-46
2023/08/13 06:45:30;;;;;;;5.75;1.38;;;18.00;99.90;;;;;;5097551;28;20075;-46
2023/08/13 06:47:57;;;;;;;7.25;1.60;;;18.30;99.90;;;;;;5097554;28;20063;-47
2023/08/13 06:50:23;;;;;;;;;;;18.60;99.90;;;;;;5097759;28;20048;-46
2023/08/13 06:52:48;;;;;;;6.43;2.08;;;18.80;99.90;;;;;;5097086;28;20001;-47
2023/08/13 06:55:14;;;;;;;4.70;1.33;;;18.80;99.90;;;;;;5079340;28;20145;-46
2023/08/13 06:57:40;;;;;;;3.08;1.23;;;18.80;99.90;;;;;;5096270;28;20046;-47
2023/08/13 07:00:06;;;;;;;6.25;1.70;;;18.70;99.90;;;;;;5095932;28;20051;-46
2023/08/13 07:02:32;;;;;;;4.78;1.42;;;18.60;99.90;;;;;;5096980;28;20046;-46
2023/08/13 07:04:58;;;;;;;3.90;1.45;;;18.40;99.90;;;;;;5097019;28;20056;-46
2023/08/13 07:07:23;;;;;;;7.68;1.70;;;18.30;99.90;;;;;;5095565;28;20097;-46
2023/08/13 07:09:49;;;;;;;6.03;2.10;;;18.30;99.90;;;;;;5096848;28;20052;-46
2023/08/13 07:12:15;;;;;;;4.90;1.42;;;18.30;99.90;;;;;;5097338;28;20044;-45
2023/08/13 07:14:41;;;;;;;5.40;1.58;;;18.30;99.90;;;;;;5097055;28;20364;-46
2023/08/13 07:17:07;;;;;;;8.38;1.58;;;18.30;99.90;;;;;;5078638;28;20094;-46
2023/08/13 07:19:33;;;;;;;6.47;1.92;;;18.30;99.90;;;;;;5096657;28;20076;-45
2023/08/13 07:21:58;;;;;;;6.90;1.40;;;18.30;99.90;;;;;;5096372;28;20044;-46
2023/08/13 07:24:24;;;;;;;7.38;1.65;;;18.40;99.90;;;;;;5095379;28;20372;-47
2023/08/13 07:26:50;;;;;;;6.50;1.45;;;18.40;99.90;;;;;;5096690;28;20047;-46
2023/08/13 07:29:15;;;;;;;3.85;1.45;;;18.40;99.90;;;;;;5095622;28;20395;-45
2023/08/13 07:31:41;;;;;;;6.97;1.52;;;18.40;99.90;;;;;;5096554;28;20088;-47
2023/08/13 07:34:07;;;;;;;3.08;1.50;;;18.40;99.90;;;;;;5096429;28;20395;-46
2023/08/13 07:36:33;;;;;;;6.13;1.30;;;18.50;99.90;;;;;;5096074;28;20046;-46
2023/08/13 07:38:59;;;;;;;5.78;1.67;;;18.50;99.90;;;;;;5094461;28;20726;-47
2023/08/13 07:41:25;;;;;;;5.28;1.83;;;18.50;99.90;;;;;;5096190;28;20517;-46
2023/08/13 07:43:50;;;;;;;4.95;1.23;;;18.50;99.90;;;;;;5096289;28;20044;-46
2023/08/13 07:46:16;;;;;;;6.88;1.58;;;18.50;99.90;;;;;;5096459;28;20430;-46
2023/08/13 07:48:42;;;;;;;4.60;1.20;;;18.50;99.90;;;;;;5096106;28;20495;-46
2023/08/13 07:51:08;;;;;;;4.35;1.33;;;18.50;99.90;;;;;;5094924;28;20098;-45
2023/08/13 07:53:34;;;;;;;5.80;1.40;;;18.50;99.90;;;;;;5096089;28;20040;-45
2023/08/13 07:56:00;;;;;;;6.97;1.35;;;18.50;99.90;;;;;;5095980;28;20130;-46
2023/08/13 07:58:26;;;;;;;7.65;1.73;;;18.60;99.90;;;;;;5095907;28;20048;-46
2023/08/13 08:00:52;;;;;;;6.35;1.27;;;18.60;99.90;;;;;;5095734;28;20089;-46
2023/08/13 08:03:17;;;;;;;4.03;1.27;;;18.60;99.90;;;;;;5095741;28;20052;-46
2023/08/13 08:05:47;;;;;;;3.75;1.08;;;18.70;99.90;;;;;;5095584;28;20445;-46
2023/08/13 08:08:13;;;;;;;5.65;1.58;;;18.70;99.90;;;;;;5095741;28;20040;-45
2023/08/13 08:10:39;;;;;;;6.53;1.58;;;18.70;99.90;;;;;;5095796;28;20040;-46
2023/08/13 08:13:05;;;;;;;6.40;1.70;;;18.80;99.90;;;;;;5095741;28;20593;-46
2023/08/13 08:15:31;;;;;;;4.95;1.40;;;18.80;99.90;;;;;;5094628;28;20475;-46
2023/08/13 08:17:56;;;;;;;4.90;1.30;;;18.80;99.90;;;;;;5095471;28;20040;-46
2023/08/13 08:20:22;;;;;;;4.28;1.27;;;18.80;99.90;;;;;;5095303;28;20040;-46
2023/08/13 08:22:48;;;;;;;7.03;1.50;;;18.90;99.90;;;;;;5095392;28;20131;-46
2023/08/13 08:25:13;;;;;;;4.72;1.10;;;19.00;99.90;;;;;;5095236;28;20494;-46
2023/08/13 08:27:39;;;;;;;7.50;1.80;;;19.00;99.90;;;;;;5095330;28;20105;-46
2023/08/13 08:30:06;;;;;;;4.20;1.42;;;19.00;99.90;;;;;;5095312;28;20040;-46
2023/08/13 08:32:32;;;;;;;2.78;1.40;;;19.00;99.90;;;;;;5095233;28;20039;-47
2023/08/13 08:34:57;;;;;;;5.82;1.70;;;18.90;99.90;;;;;;5095042;28;20497;-48
2023/08/13 08:37:23;;;;;;;5.85;1.88;;;18.90;99.90;;;;;;5094967;28;20052;-46
2023/08/13 08:39:49;;;;;;;4.72;1.33;;;18.90;99.90;;;;;;5095027;28;20403;-46
2023/08/13 08:42:15;;;;;;;7.13;1.60;;;18.90;99.90;;;;;;5095023;28;20032;-46
2023/08/13 08:44:43;;;;;;;3.47;1.40;;;19.00;99.90;;;;;;5094891;28;20448;-47
2023/08/13 08:47:09;;;;;;;5.00;1.40;;;19.00;99.90;;;;;;5094828;28;20399;-47
2023/08/13 08:49:35;;;;;;;5.72;1.80;;;19.10;99.90;;;;;;5093313;28;20499;-46
2023/08/13 08:52:02;;;;;;;7.75;1.38;;;19.20;99.90;;;;;;5094357;28;20121;-46
2023/08/13 08:54:27;;;;;;;;;;;19.20;99.90;;;;;;5094336;28;20173;-46
2023/08/13 08:56:53;;;;;;;6.32;1.67;;;19.30;99.90;;;;;;5094726;28;19989;-46
2023/08/13 08:59:20;;;;;;;4.43;1.27;;;19.30;99.90;;;;;;5094499;28;20506;-47
2023/08/13 09:01:45;;;;;;;5.07;1.67;;;19.30;99.90;;;;;;5094655;28;20044;-46
2023/08/13 09:04:11;;;;;;;4.30;1.35;;;19.30;99.90;;;;;;5093339;28;20402;-46
2023/08/13 09:07:01;;;;;;;7.10;1.58;;;19.40;99.90;;;;;;5094784;28;20048;-46
2023/08/13 09:09:28;;;;;;;3.88;1.20;;;19.40;99.90;;;;;;5094419;28;20043;-46
2023/08/13 09:11:54;;;;;;;3.60;1.20;;;19.40;99.90;;;;;;5094534;28;20506;-46
2023/08/13 09:14:20;;;;;;;;;;;19.40;99.90;;;;;;5094088;28;20055;-46
2023/08/13 09:16:47;;;;;;;4.05;1.17;;;19.40;99.90;;;;;;5094366;28;20271;-46
2023/08/13 09:19:14;;;;;;;1.60;0.85;;;19.40;99.90;;;;;;5094790;28;20552;-48
2023/08/13 09:21:45;;;;;;;8.07;1.60;;;19.50;99.90;;;;;;5094251;28;20097;-47
2023/08/13 09:24:10;;;;;;;5.18;1.08;;;19.50;99.90;;;;;;5094242;28;20135;-46
2023/08/13 09:26:37;;;;;;;4.53;1.10;;;19.50;99.90;;;;;;5093060;28;20126;-46
2023/08/13 09:29:07;;;;;;;2.90;1.13;;;19.50;99.90;;;;;;5094315;28;20044;-46
2023/08/13 09:31:33;;;;;;;5.25;0.90;;;19.60;99.90;;;;;;5076140;28;20093;-45
2023/08/13 09:33:59;;;;;;;4.55;0.90;;;19.70;99.90;;;;;;5094117;28;20051;-45
2023/08/13 09:36:25;;;;;;;;;;;19.80;99.90;;;;;;5093739;28;20491;-46
2023/08/13 09:38:52;;;;;;;5.53;0.80;;;20.00;99.90;;;;;;5094247;28;19923;-46
2023/08/13 09:41:20;;;;;;;4.00;0.90;;;20.10;99.90;;;;;;5092762;28;20075;-46
2023/08/13 09:43:49;;;;;;;3.58;0.88;;;20.20;99.90;;;;;;5093957;28;20436;-45
2023/08/13 09:46:27;;;;;;;3.90;0.63;;;20.20;99.90;;;;;;5094078;28;20051;-47
2023/08/13 09:48:55;;;;;;;1.83;0.60;;;20.30;99.90;;;;;;5094129;28;20048;-46
2023/08/13 09:51:27;;;;;;;5.75;0.80;;;20.30;99.90;;;;;;5093903;28;20497;-47
2023/08/13 09:53:59;;;;;;;3.33;0.82;;;20.40;99.90;;;;;;5093864;28;20131;-46
2023/08/13 09:56:28;;;;;;;1.90;0.75;;;20.40;99.90;;;;;;5093785;28;20044;-47
2023/08/13 09:58:54;;;;;;;4.75;0.70;;;20.50;99.90;;;;;;5093906;28;20146;-46
2023/08/13 10:01:20;;;;;;;2.53;0.70;;;20.50;99.90;;;;;;5093575;28;20499;-46
2023/08/13 10:03:46;;;;;;;4.13;0.80;;;20.60;99.90;;;;;;5093802;28;20048;-46
2023/08/13 10:06:13;;;;;;;;;;;20.70;99.90;;;;;;5094039;28;20040;-46
2023/08/13 10:08:39;;;;;;;2.97;0.73;;;20.70;99.90;;;;;;5092663;28;20385;-46
2023/08/13 10:11:05;;;;;;;;;;;20.70;99.90;;;;;;5094010;28;20137;-47
2023/08/13 10:13:31;;;;;;;4.50;0.70;;;20.80;99.90;;;;;;5093747;28;20425;-46
2023/08/13 10:15:57;;;;;;;6.32;0.95;;;20.80;99.90;;;;;;5093678;28;20548;-46
2023/08/13 10:18:23;;;;;;;4.05;1.00;;;20.90;99.90;;;;;;5093603;28;20097;-46
2023/08/13 10:20:49;;;;;;;2.33;0.88;;;20.90;99.90;;;;;;5093819;28;20092;-47
2023/08/13 10:23:17;;;;;;;4.45;0.90;;;20.90;99.90;;;;;;5093556;28;20464;-46
2023/08/13 10:25:44;;;;;;;4.50;1.33;;;20.90;99.90;;;;;;5092490;28;20051;-46
2023/08/13 10:28:21;;;;;;;1.88;0.77;;;20.90;99.90;;;;;;5092626;28;20479;-45
2023/08/13 10:30:47;;;;;;;2.28;0.80;;;20.90;99.90;;;;;;5092582;28;20056;-46
2023/08/13 10:33:14;;;;;;;2.92;0.75;;;20.90;99.90;;;;;;5093577;28;20048;-46
2023/08/13 10:35:40;;;;;;;3.15;0.90;;;21.00;99.90;;;;;;5092514;28;20387;-45
2023/08/13 10:38:07;;;;;;;2.25;0.80;;;21.10;99.90;;;;;;5093080;28;20055;-46
2023/08/13 10:40:34;;;;;;;3.20;1.33;;;21.10;99.90;;;;;;5093398;28;20169;-46
2023/08/13 10:43:02;;;;;;;3.05;0.90;;;21.20;99.90;;;;;;5092780;28;20074;-45
2023/08/13 10:45:32;;;;;;;3.58;1.20;;;21.20;99.90;;;;;;5092364;28;20489;-47
2023/08/13 10:48:05;;;;;;;2.75;0.60;;;21.30;99.90;;;;;;5093490;28;20044;-46
2023/08/13 10:50:34;;;;;;;1.98;0.70;;;21.30;99.90;;;;;;5093269;28;20043;-46
2023/08/13 10:53:21;;;;;;;2.22;0.77;;;21.40;99.90;;;;;;5093080;28;20047;-46
2023/08/13 10:55:51;;;;;;;2.38;0.70;;;21.40;99.90;;;;;;5092567;28;20055;-47
2023/08/13 10:58:27;;;;;;;3.95;0.88;;;21.50;99.90;;;;;;5093497;28;20125;-46
2023/08/13 11:01:00;;;;;;;2.00;0.77;;;21.40;99.90;;;;;;5093180;28;20055;-47
2023/08/13 11:03:30;;;;;;;2.80;0.70;;;21.30;99.90;;;;;;5093247;28;20086;-46
2023/08/13 11:05:56;;;;;;;2.53;0.80;;;21.30;99.90;;;;;;5093268;28;20483;-46
2023/08/13 11:08:24;;;;;;;3.80;1.00;;;21.40;99.90;;;;;;5093378;28;20127;-45
2023/08/13 11:10:50;;;;;;;3.58;0.80;;;21.50;99.90;;;;;;5093448;28;20051;-46
2023/08/13 11:13:17;;;;;;;2.10;0.68;;;21.70;99.90;;;;;;5093476;28;20043;-46
2023/08/13 11:15:55;;;;;;;1.02;0.50;;;21.80;99.90;;;;;;5096734;28;20048;-46
2023/08/13 11:18:22;;;;;;;2.05;0.50;;;22.10;99.90;;;;;;5096704;28;20055;-46
2023/08/13 11:20:49;;;;;;;2.00;0.50;;;22.20;99.90;;;;;;5096819;28;20083;-46
2023/08/13 11:23:16;;;;;;;2.35;0.70;;;22.20;99.90;;;;;;5096636;28;20052;-46
2023/08/13 11:25:46;;;;;;;2.40;0.60;;;22.10;99.90;;;;;;5096378;28;20047;-45
2023/08/13 11:28:18;;;;;;;2.15;0.70;;;22.00;99.90;;;;;;5096557;28;20044;-45
2023/08/13 11:30:43;;;;;;;1.80;0.60;;;21.90;99.90;;;;;;5096692;28;20048;-47
2023/08/13 11:33:09;;;;;;;3.33;0.88;;;21.90;99.90;;;;;;5095235;28;20126;-46
2023/08/13 11:35:35;;;;;;;2.95;0.70;;;22.00;99.90;;;;;;5096413;28;20036;-46
2023/08/13 11:38:02;;;;;;;4.60;1.15;;;22.00;99.90;;;;;;5096668;28;20060;-46
2023/08/13 11:40:28;;;;;;;2.05;0.60;;;22.00;99.90;;;;;;5096274;28;20054;-46
2023/08/13 11:42:58;;;;;;;2.78;0.68;;;22.00;99.90;;;;;;5095833;28;20097;-46
2023/08/13 11:45:24;;;;;;;2.85;0.60;;;22.00;99.90;;;;;;5096271;28;20040;-46
2023/08/13 11:47:51;;;;;;;3.33;0.82;;;22.00;99.90;;;;;;5096160;28;20048;-46
2023/08/13 11:50:21;;;;;;;5.95;1.00;;;21.90;99.90;;;;;;5096118;28;20517;-46
2023/08/13 11:53:13;;;;;;;2.55;0.70;;;21.90;99.90;;;;;;5095875;28;20040;-46
2023/08/13 11:55:47;;;;;;;2.65;0.70;;;21.90;99.90;;;;;;5096254;28;20445;-46
2023/08/13 11:58:19;;;;;;;2.92;0.70;;;22.10;99.90;;;;;;5096079;28;20051;-46
2023/08/13 12:00:49;;;;;;;3.03;0.75;;;22.10;99.90;;;;;;5094916;28;20044;-48
2023/08/13 12:03:15;;;;;;;2.85;0.65;;;22.10;99.90;;;;;;5095826;28;20044;-47
2023/08/13 12:05:42;;;;;;;;;;;22.00;99.90;;;;;;5096188;28;20109;-46
2023/08/13 12:08:09;;;;;;;;;;;21.90;99.90;;;;;;5096300;28;19920;-47
2023/08/13 12:10:36;;;;;;;2.60;0.70;;;21.80;99.90;;;;;;5095861;28;19994;-46
2023/08/13 12:13:03;;;;;;;1.00;0.70;;;21.80;99.90;;;;;;5095899;28;20461;-46
2023/08/13 12:15:29;;;;;;;2.53;0.95;;;21.70;99.90;;;;;;5095625;28;20132;-46
2023/08/13 12:17:56;;;;;;;2.40;0.77;;;21.70;99.90;;;;;;5095690;28;20514;-46
2023/08/13 12:20:22;;;;;;;3.83;0.68;;;21.70;99.90;;;;;;5095313;28;20116;-46
2023/08/13 12:22:49;;;;;;;3.08;0.80;;;21.70;99.90;;;;;;5077478;28;20044;-46
2023/08/13 12:25:15;;;;;;;1.17;0.60;;;21.70;99.90;;;;;;5095450;28;20425;-46
2023/08/13 12:27:42;;;;;;;;;;;21.70;99.90;;;;;;5094757;28;20059;-46
2023/08/13 12:30:10;;;;;;;1.65;0.68;;;21.60;99.90;;;;;;5095382;28;19967;-46
2023/08/13 12:32:36;;;;;;;1.67;0.60;;;21.60;99.90;;;;;;5095224;28;20044;-50
2023/08/13 12:35:02;;;;;;;1.98;0.70;;;21.60;99.90;;;;;;5095044;28;20051;-46
2023/08/13 12:37:28;;;;;;;2.58;0.55;;;21.60;99.90;;;;;;5095289;28;20092;-46
2023/08/13 12:39:54;;;;;;;2.47;0.70;;;21.50;99.90;;;;;;5095468;28;20052;-46
2023/08/13 12:42:20;;;;;;;2.33;0.60;;;21.50;99.90;;;;;;5095386;28;20047;-45
2023/08/13 12:44:46;;;;;;;3.20;0.70;;;21.50;99.90;;;;;;5077260;28;20510;-46
2023/08/13 12:47:12;;;;;;;3.60;0.60;;;21.40;99.90;;;;;;5095040;28;20130;-46
2023/08/13 12:49:37;;;;;;;3.65;0.73;;;21.30;99.90;;;;;;5094759;28;20506;-45